Terminal Aerodrome Forecast
Issued by NWS Austin/San Antonio, TX

Home | Current Version | Previous Version | Text Only | Print | Product List | Glossary On
Versions: 1 2 3 4 5 6 7 8 9 10 11 12 13 14 15 16 17
000
FTUS44 KEWX 252300 RRA
TAFAUS
TAF
KAUS 252341Z 2600/2706 17012G18KT P6SM SCT250
     FM260100 16011KT P6SM SCT250
     FM260900 17005KT P6SM OVC015
     FM261200 17004KT 4SM BR OVC007
     FM261700 18012G18KT 5SM BR OVC015
     FM262000 17012G18KT P6SM OVC025
     FM270100 16009KT P6SM OVC015=

USA.gov is the U.S. government's official web portal to all federal, state and local government web resources and services.